createdAt,value
2023-03-06T00:00:41.792Z,80.76
2023-03-06T00:01:41.746Z,80.65
2023-03-06T00:02:41.733Z,80.56
2023-03-06T00:04:41.715Z,81.52
2023-03-06T00:09:41.656Z,80.76
2023-03-06T00:10:41.659Z,81.10
2023-03-06T00:11:41.637Z,81.73
2023-03-06T00:12:41.624Z,81.90
2023-03-06T00:13:41.613Z,80.24
2023-03-06T00:14:41.607Z,81.73
2023-03-06T00:16:41.621Z,82.34
2023-03-06T00:17:41.612Z,82.41
2023-03-06T00:20:41.544Z,82.08
2023-03-06T00:24:41.495Z,83.21
2023-03-06T00:25:41.482Z,83.69
2023-03-06T00:26:41.477Z,81.62
2023-03-06T00:27:41.460Z,81.93
2023-03-06T00:31:41.472Z,82.04
2023-03-06T00:32:41.429Z,82.49
2023-03-06T00:33:41.394Z,82.55
2023-03-06T00:35:41.472Z,82.55
2023-03-06T00:36:41.365Z,82.55
2023-03-06T00:37:41.363Z,82.18
2023-03-06T00:38:41.356Z,81.83
2023-03-06T00:39:41.338Z,81.83
2023-03-06T00:41:41.305Z,81.97
2023-03-06T00:42:41.299Z,83.11
2023-03-06T00:43:41.284Z,82.86
2023-03-06T00:46:41.254Z,82.08
2023-03-06T00:47:41.241Z,81.62
2023-03-06T00:48:41.262Z,82.39
2023-03-06T00:49:41.219Z,82.86
2023-03-06T00:50:41.217Z,81.90
2023-03-06T00:51:41.196Z,80.14
2023-03-06T00:52:41.186Z,80.35
2023-03-06T00:53:41.178Z,80.59
2023-03-06T01:00:41.163Z,80.84
2023-03-06T01:01:41.087Z,79.90
2023-03-06T01:02:41.081Z,80.32
2023-03-06T01:03:41.068Z,80.21
2023-03-06T01:04:41.074Z,80.59
2023-03-06T01:05:41.041Z,79.45
2023-03-06T01:11:40.978Z,79.90
2023-03-06T01:15:40.940Z,79.69
2023-03-06T01:16:40.963Z,80.11
2023-03-06T01:17:40.904Z,80.15
2023-03-06T01:20:40.899Z,80.87
2023-03-06T01:22:40.853Z,80.63
2023-03-06T01:23:40.842Z,80.21
2023-03-06T01:27:40.801Z,79.90
2023-03-06T01:28:40.796Z,80.84
2023-03-06T01:29:40.795Z,80.63
2023-03-06T01:30:40.765Z,80.84
2023-03-06T01:31:40.774Z,81.18
2023-03-06T01:33:40.733Z,81.29
2023-03-06T01:34:40.723Z,81.87
2023-03-06T01:36:40.726Z,80.86
2023-03-06T01:37:40.697Z,80.21
2023-03-06T01:38:40.681Z,81.39
2023-03-06T01:39:40.672Z,82.49
2023-03-06T01:40:40.665Z,81.80
2023-03-06T01:41:40.655Z,82.01
2023-03-06T01:42:40.641Z,82.53
2023-03-06T01:43:40.631Z,82.80
2023-03-06T01:44:40.619Z,82.39
2023-03-06T01:45:40.664Z,81.31
2023-03-06T01:46:40.599Z,80.32
2023-03-06T01:47:40.590Z,81.18
2023-03-06T01:48:40.578Z,81.90
2023-03-06T01:49:40.569Z,81.76
2023-03-06T01:50:40.558Z,81.56
2023-03-06T01:51:40.545Z,82.28
2023-03-06T01:52:40.559Z,81.35
2023-03-06T01:53:40.525Z,81.59
2023-03-06T01:54:40.518Z,81.70
2023-03-06T01:55:40.528Z,81.39
2023-03-06T01:56:40.495Z,81.59
2023-03-06T01:57:40.487Z,81.70
2023-03-06T02:01:40.447Z,82.04
2023-03-06T02:02:40.539Z,81.59
2023-03-06T02:03:40.419Z,82.32
2023-03-06T02:04:40.417Z,81.87
2023-03-06T02:05:40.394Z,80.52
2023-03-06T02:06:40.385Z,80.98
2023-03-06T02:07:40.373Z,81.76
2023-03-06T02:08:40.385Z,80.38
2023-03-06T02:09:40.349Z,80.84
2023-03-06T02:10:40.344Z,81.29
2023-03-06T02:11:40.369Z,82.11
2023-03-06T02:12:40.320Z,81.39
2023-03-06T02:13:40.323Z,81.70
2023-03-06T02:14:40.327Z,81.87
2023-03-06T02:15:40.286Z,81.29
2023-03-06T02:16:40.351Z,81.87
2023-03-06T02:17:40.273Z,81.14
2023-03-06T02:18:40.255Z,81.49
2023-03-06T02:19:40.251Z,82.67
2023-03-06T02:20:40.233Z,82.94
2023-03-06T02:24:40.211Z,81.52
2023-03-06T02:25:40.184Z,80.59
2023-03-06T02:28:40.151Z,81.87
2023-03-06T02:29:40.136Z,81.45
2023-03-06T02:30:40.175Z,81.29
2023-03-06T02:31:40.117Z,82.59
2023-03-06T02:32:40.104Z,81.83
2023-03-06T02:33:40.099Z,80.63
2023-03-06T02:35:40.119Z,80.90
2023-03-06T02:36:40.058Z,80.38
2023-03-06T02:37:40.055Z,81.17
2023-03-06T02:38:40.044Z,80.45
2023-03-06T02:39:40.027Z,79.79
2023-03-06T02:40:40.043Z,80.07
2023-03-06T02:41:40.008Z,79.24
2023-03-06T02:42:40.000Z,79.14
2023-03-06T02:43:39.987Z,79.18
2023-03-06T02:44:39.971Z,79.18
2023-03-06T02:45:39.980Z,79.52
2023-03-06T02:46:39.951Z,80.59
2023-03-06T02:47:39.936Z,79.97
2023-03-06T02:48:39.926Z,80.56
2023-03-06T02:49:39.918Z,80.35
2023-03-06T02:50:39.909Z,79.79
2023-03-06T02:51:39.895Z,79.62
2023-03-06T02:52:39.889Z,79.62
2023-03-06T02:53:39.872Z,79.93
2023-03-06T02:54:39.862Z,79.93
2023-03-06T02:55:39.846Z,79.76
2023-03-06T02:56:39.859Z,79.76
2023-03-06T02:57:39.826Z,81.00
2023-03-06T02:58:39.813Z,80.52
2023-03-06T02:59:39.807Z,81.21
2023-03-06T03:00:40.266Z,80.42
2023-03-06T03:01:39.803Z,81.93
2023-03-06T03:02:39.772Z,80.73
2023-03-06T03:03:39.758Z,81.35
2023-03-06T03:04:39.773Z,81.14
2023-03-06T03:05:39.736Z,80.73
2023-03-06T03:06:39.730Z,80.73
2023-03-06T03:07:39.715Z,80.94
2023-03-06T03:08:39.704Z,81.35
2023-03-06T03:09:39.691Z,80.84
2023-03-06T03:10:39.690Z,80.52
2023-03-06T03:11:39.671Z,81.45
2023-03-06T03:12:39.685Z,81.10
2023-03-06T03:13:39.648Z,80.70
2023-03-06T03:14:39.638Z,81.00
2023-03-06T03:15:39.667Z,80.32
2023-03-06T03:16:39.619Z,80.87
2023-03-06T03:17:39.605Z,81.56
2023-03-06T03:18:39.596Z,81.59
2023-03-06T03:19:39.589Z,81.59
2023-03-06T03:20:39.580Z,81.59
2023-03-06T03:21:39.564Z,81.70
2023-03-06T03:22:39.555Z,81.45
2023-03-06T03:23:39.543Z,80.84
2023-03-06T03:24:39.567Z,81.04
2023-03-06T03:25:39.526Z,80.01
2023-03-06T03:26:39.516Z,80.63
2023-03-06T03:27:39.502Z,81.59
2023-03-06T03:28:39.515Z,80.67
2023-03-06T03:29:39.503Z,81.64
2023-03-06T03:31:39.459Z,81.73
2023-03-06T03:32:39.449Z,81.59
2023-03-06T03:33:39.440Z,81.39
2023-03-06T03:34:39.432Z,82.15
2023-03-06T03:35:39.451Z,82.77
2023-03-06T03:36:39.411Z,81.94
2023-03-06T03:37:39.414Z,82.36
2023-03-06T03:38:39.387Z,81.49
2023-03-06T03:39:39.374Z,81.70
2023-03-06T03:40:39.369Z,81.90
2023-03-06T03:41:39.355Z,81.29
2023-03-06T03:42:39.352Z,81.59
2023-03-06T03:43:39.332Z,81.87
2023-03-06T03:44:39.365Z,81.70
2023-03-06T03:45:39.309Z,81.70
2023-03-06T03:46:39.363Z,81.29
2023-03-06T03:47:39.290Z,81.18
2023-03-06T03:48:39.281Z,82.01
2023-03-06T03:49:39.267Z,81.80
2023-03-06T03:50:39.259Z,81.49
2023-03-06T03:51:39.245Z,82.22
2023-03-06T03:54:39.217Z,80.56
2023-03-06T03:55:39.202Z,82.11
2023-03-06T04:01:39.794Z,80.56
2023-03-06T04:02:39.132Z,80.67
2023-03-06T04:03:39.115Z,81.22
2023-03-06T04:04:39.179Z,82.01
2023-03-06T04:05:39.094Z,80.70
2023-03-06T04:06:39.083Z,81.12
2023-03-06T04:07:39.071Z,80.91
2023-03-06T04:08:39.075Z,80.60
2023-03-06T04:11:39.039Z,80.12
2023-03-06T04:12:39.022Z,79.87
2023-03-06T04:13:39.007Z,80.74
2023-03-06T04:14:38.997Z,81.01
2023-03-06T04:16:38.993Z,80.29
2023-03-06T04:17:38.965Z,80.15
2023-03-06T04:18:38.951Z,79.56
2023-03-06T04:19:38.944Z,80.39
2023-03-06T04:21:38.940Z,79.80
2023-03-06T04:22:38.911Z,80.49
2023-03-06T04:25:38.879Z,79.43
2023-03-06T04:26:38.863Z,78.70
2023-03-06T04:31:38.854Z,80.70
2023-03-06T04:32:38.890Z,79.66
2023-03-06T04:33:38.796Z,80.05
2023-03-06T04:34:38.782Z,79.84
2023-03-06T04:35:38.841Z,80.32
2023-03-06T04:36:38.762Z,79.60
2023-03-06T04:37:38.756Z,79.91
2023-03-06T04:38:38.783Z,79.56
2023-03-06T04:39:38.733Z,79.15
2023-03-06T04:40:38.721Z,78.53
2023-03-06T04:41:38.712Z,78.94
2023-03-06T04:43:38.690Z,78.77
2023-03-06T04:44:38.695Z,79.50
2023-03-06T04:45:38.739Z,79.29
2023-03-06T04:46:38.656Z,79.80
2023-03-06T04:47:38.649Z,78.98
2023-03-06T04:48:38.658Z,79.91
2023-03-06T04:49:38.644Z,79.94
2023-03-06T04:50:38.613Z,79.54
2023-03-06T04:51:38.607Z,80.05
2023-03-06T04:52:38.599Z,80.12
2023-03-06T04:53:38.587Z,79.33
2023-03-06T04:54:38.571Z,79.74
2023-03-06T04:55:38.560Z,80.57
2023-03-06T04:57:38.540Z,79.94
2023-03-06T04:58:38.527Z,80.12
2023-03-06T04:59:39.305Z,79.91
2023-03-06T05:00:38.629Z,79.74
2023-03-06T05:01:38.496Z,80.53
2023-03-06T05:02:38.484Z,79.50
2023-03-06T05:08:38.419Z,79.08
2023-03-06T05:09:39.210Z,80.36
2023-03-06T05:10:38.394Z,80.46
2023-03-06T05:11:38.403Z,80.32
2023-03-06T05:12:38.374Z,80.01
2023-03-06T05:13:38.372Z,79.98
2023-03-06T05:14:38.366Z,78.74
2023-03-06T05:15:38.341Z,79.19
2023-03-06T05:16:38.390Z,79.84
2023-03-06T05:17:38.321Z,81.09
2023-03-06T05:18:38.309Z,80.98
2023-03-06T05:19:38.299Z,80.67
2023-03-06T05:21:38.277Z,81.19
2023-03-06T05:23:38.256Z,81.33
2023-03-06T05:24:38.244Z,81.85
2023-03-06T05:25:38.236Z,81.64
2023-03-06T05:26:38.241Z,81.95
2023-03-06T05:27:38.217Z,82.47
2023-03-06T05:28:38.200Z,82.85
2023-03-06T05:29:38.190Z,81.54
2023-03-06T05:30:38.178Z,82.06
2023-03-06T05:31:38.214Z,82.99
2023-03-06T05:32:38.182Z,82.64
2023-03-06T05:33:38.148Z,81.61
2023-03-06T05:34:38.155Z,81.71
2023-03-06T05:35:38.172Z,81.29
2023-03-06T05:36:38.138Z,81.19
2023-03-06T05:37:38.110Z,82.33
2023-03-06T05:38:38.095Z,82.12
2023-03-06T05:39:38.093Z,82.09
2023-03-06T05:40:38.075Z,81.81
2023-03-06T05:41:38.069Z,82.29
2023-03-06T05:42:38.056Z,80.95
2023-03-06T05:43:38.046Z,81.92
2023-03-06T05:44:38.044Z,81.81
2023-03-06T05:45:38.050Z,81.71
2023-03-06T05:46:38.012Z,82.47
2023-03-06T05:47:38.008Z,82.78
2023-03-06T05:48:37.996Z,82.23
2023-03-06T05:49:37.987Z,82.54
2023-03-06T05:50:37.973Z,82.23
2023-03-06T05:51:37.966Z,81.88
2023-03-06T05:52:37.979Z,81.61
2023-03-06T05:53:37.947Z,81.71
2023-03-06T05:54:37.929Z,81.46
2023-03-06T05:55:37.951Z,81.29
2023-03-06T05:56:37.904Z,82.18
2023-03-06T05:57:37.899Z,81.22
2023-03-06T05:58:37.889Z,80.70
2023-03-06T06:01:37.851Z,81.61
2023-03-06T06:03:37.858Z,82.12
2023-03-06T06:05:37.811Z,82.39
2023-03-06T06:06:37.803Z,80.74
2023-03-06T06:07:37.789Z,81.50
2023-03-06T06:08:37.795Z,82.54
2023-03-06T06:10:37.754Z,82.26
2023-03-06T06:11:37.743Z,82.68
2023-03-06T06:12:37.733Z,82.64
2023-03-06T06:15:37.835Z,83.05
2023-03-06T06:16:37.695Z,82.18
2023-03-06T06:18:40.973Z,81.01
2023-03-06T06:24:37.629Z,81.94
2023-03-06T06:25:37.597Z,81.05
2023-03-06T06:26:37.584Z,81.36
2023-03-06T06:27:37.573Z,80.84
2023-03-06T06:28:37.561Z,81.15
2023-03-06T06:29:37.561Z,81.05
2023-03-06T06:30:37.542Z,81.57
2023-03-06T06:31:37.536Z,81.36
2023-03-06T06:32:37.594Z,81.92
2023-03-06T06:33:37.509Z,81.36
2023-03-06T06:34:37.497Z,81.32
2023-03-06T06:35:37.517Z,80.70
2023-03-06T06:36:37.490Z,80.84
2023-03-06T06:37:37.466Z,80.63
2023-03-06T06:38:37.456Z,82.23
2023-03-06T06:40:37.455Z,82.44
2023-03-06T06:41:56.858Z,82.12
2023-03-06T06:42:40.233Z,82.09
2023-03-06T06:43:37.406Z,81.78
2023-03-06T06:44:37.400Z,81.09
2023-03-06T06:47:20.751Z,82.85
2023-03-06T06:47:38.560Z,82.02
2023-03-06T06:48:37.349Z,82.09
2023-03-06T06:49:37.358Z,81.67
2023-03-06T06:50:37.325Z,81.88
2023-03-06T06:52:37.306Z,82.23
2023-03-06T06:53:37.297Z,82.64
2023-03-06T06:54:37.284Z,82.29
2023-03-06T06:55:37.274Z,80.84
2023-03-06T06:56:37.296Z,81.26
2023-03-06T06:57:37.268Z,81.98
2023-03-06T06:58:37.246Z,81.46
2023-03-06T06:59:37.231Z,81.40
2023-03-06T07:00:37.224Z,82.54
2023-03-06T07:01:37.266Z,82.39
2023-03-06T07:02:37.198Z,81.53
2023-03-06T07:03:37.223Z,81.59
2023-03-06T07:04:37.178Z,79.73
2023-03-06T07:05:37.170Z,80.49
2023-03-06T07:07:37.146Z,80.22
2023-03-06T07:08:37.140Z,80.95
2023-03-06T07:09:37.125Z,81.15
2023-03-06T07:10:37.115Z,81.43
2023-03-06T07:12:37.115Z,80.25
2023-03-06T07:14:37.070Z,80.35
2023-03-06T07:16:37.046Z,79.66
2023-03-06T07:17:37.039Z,80.39
2023-03-06T07:18:37.031Z,80.49
2023-03-06T07:19:38.602Z,80.01
2023-03-06T07:20:37.007Z,80.84
2023-03-06T07:23:38.004Z,81.36
2023-03-06T07:24:36.966Z,81.46
2023-03-06T07:25:36.953Z,81.73
2023-03-06T07:26:36.940Z,81.01
2023-03-06T07:27:36.933Z,81.01
2023-03-06T07:28:51.257Z,81.22
2023-03-06T07:29:37.942Z,81.15
2023-03-06T07:30:36.946Z,81.98
2023-03-06T07:31:36.965Z,81.57
2023-03-06T07:32:36.911Z,81.67
2023-03-06T07:33:36.866Z,81.78
2023-03-06T07:34:36.857Z,81.88
2023-03-06T07:35:36.908Z,81.88
2023-03-06T07:36:36.834Z,81.46
2023-03-06T07:37:36.843Z,81.57
2023-03-06T07:38:36.818Z,81.46
2023-03-06T07:39:36.803Z,80.63
2023-03-06T07:40:36.792Z,81.46
2023-03-06T07:41:36.782Z,81.26
2023-03-06T07:42:36.772Z,81.73
2023-03-06T07:43:36.760Z,81.73
2023-03-06T07:45:36.740Z,80.25
2023-03-06T07:47:36.718Z,80.25
2023-03-06T07:48:36.731Z,80.25
2023-03-06T07:49:36.697Z,80.01
2023-03-06T07:50:36.683Z,80.15
2023-03-06T07:51:36.676Z,79.87
2023-03-06T07:52:36.662Z,80.95
2023-03-06T07:57:36.611Z,81.36
2023-03-06T07:58:36.649Z,82.39
2023-03-06T07:59:36.593Z,82.01
2023-03-06T08:00:36.596Z,81.08
2023-03-06T08:01:36.578Z,81.18
2023-03-06T08:04:36.536Z,80.77
2023-03-06T08:05:36.524Z,80.21
2023-03-06T08:06:36.512Z,79.94
2023-03-06T08:07:36.503Z,80.04
2023-03-06T08:08:36.490Z,80.49
2023-03-06T08:09:36.483Z,79.35
2023-03-06T08:10:36.467Z,79.08
2023-03-06T08:12:36.448Z,79.73
2023-03-06T08:13:36.460Z,80.67
2023-03-06T08:14:36.430Z,81.43
2023-03-06T08:15:36.412Z,80.67
2023-03-06T08:18:36.377Z,79.29
2023-03-06T08:19:36.370Z,80.15
2023-03-06T08:20:36.355Z,80.73
2023-03-06T08:21:36.353Z,79.84
2023-03-06T08:22:36.330Z,80.42
2023-03-06T08:23:36.324Z,79.90
2023-03-06T08:24:36.311Z,80.21
2023-03-06T08:28:36.266Z,80.80
2023-03-06T08:29:36.260Z,81.14
2023-03-06T08:30:36.246Z,80.56
2023-03-06T08:32:36.418Z,82.56
2023-03-06T08:33:36.213Z,83.39
2023-03-06T08:34:36.205Z,83.29
2023-03-06T08:38:36.161Z,83.39
2023-03-06T08:40:36.140Z,83.29
2023-03-06T08:41:36.130Z,83.12
2023-03-06T08:42:36.116Z,83.50
2023-03-06T08:43:36.108Z,82.98
2023-03-06T08:44:36.095Z,83.91
2023-03-06T08:45:36.115Z,82.77
2023-03-06T08:46:36.072Z,82.50
2023-03-06T08:48:36.120Z,83.60
2023-03-06T08:50:36.030Z,82.56
2023-03-06T08:51:36.015Z,82.46
2023-03-06T08:52:36.010Z,82.50
2023-03-06T08:57:35.965Z,82.15
2023-03-06T08:58:35.940Z,83.29
2023-03-06T09:00:35.955Z,82.36
2023-03-06T09:01:35.970Z,82.70
2023-03-06T09:02:35.915Z,83.22
2023-03-06T09:03:35.887Z,83.60
2023-03-06T09:04:35.998Z,83.05
2023-03-06T09:05:35.864Z,83.00
2023-03-06T09:06:35.877Z,81.97
2023-03-06T09:07:35.841Z,82.45
2023-03-06T09:08:35.834Z,81.48
2023-03-06T09:09:35.819Z,80.38
2023-03-06T09:10:35.832Z,81.21
2023-03-06T09:11:35.799Z,81.31
2023-03-06T09:12:47.482Z,81.93
2023-03-06T09:13:35.780Z,81.52
2023-03-06T09:14:35.763Z,81.76
2023-03-06T09:15:35.753Z,82.76
2023-03-06T09:16:35.824Z,81.56
2023-03-06T09:20:35.726Z,82.70
2023-03-06T09:21:35.696Z,82.11
2023-03-06T09:23:35.671Z,82.59
2023-03-06T09:26:45.462Z,81.93
2023-03-06T09:27:36.662Z,80.90
2023-03-06T09:31:26.422Z,80.42
2023-03-06T09:32:26.447Z,80.90
2023-03-06T09:33:26.400Z,80.94
2023-03-06T09:34:26.386Z,80.77
2023-03-06T09:39:27.886Z,79.94
2023-03-06T09:44:27.832Z,78.97
2023-03-06T09:45:27.800Z,78.14
2023-03-06T09:46:27.876Z,78.21
2023-03-06T09:47:27.775Z,78.04
2023-03-06T09:48:27.760Z,78.87
2023-03-06T09:49:27.750Z,78.77
2023-03-06T09:50:27.740Z,79.45
2023-03-06T09:51:27.728Z,78.35
2023-03-06T09:52:27.716Z,79.01
2023-03-06T09:53:27.708Z,79.56
2023-03-06T09:54:27.693Z,80.25
2023-03-06T09:56:27.672Z,79.08
2023-03-06T09:57:27.662Z,78.77
2023-03-06T09:58:27.651Z,79.49
2023-03-06T09:59:27.642Z,78.52
2023-03-06T10:00:27.627Z,78.00
2023-03-06T10:01:27.625Z,77.80
2023-03-06T10:02:27.738Z,77.45
2023-03-06T10:03:27.647Z,77.42
2023-03-06T10:04:27.679Z,78.04
2023-03-06T10:05:27.573Z,77.60
2023-03-06T10:06:27.561Z,77.35
2023-03-06T10:07:27.552Z,76.11
2023-03-06T10:08:27.540Z,76.70
2023-03-06T10:09:27.532Z,78.14
2023-03-06T10:10:27.518Z,77.74
2023-03-06T10:11:27.536Z,78.14
2023-03-06T10:12:27.498Z,78.39
2023-03-06T10:15:27.517Z,78.35
2023-03-06T10:16:27.454Z,78.66
2023-03-06T10:18:27.434Z,77.74
2023-03-06T10:19:27.424Z,77.18
2023-03-06T10:20:27.411Z,77.60
2023-03-06T10:21:27.403Z,77.70
2023-03-06T10:22:27.408Z,76.87
2023-03-06T10:23:27.383Z,77.18
2023-03-06T10:26:27.444Z,77.53
2023-03-06T10:27:27.391Z,77.70
2023-03-06T10:28:27.329Z,77.11
2023-03-06T10:29:27.320Z,77.28
2023-03-06T10:30:27.307Z,77.49
2023-03-06T10:31:27.360Z,76.73
2023-03-06T10:33:28.304Z,76.87
2023-03-06T10:34:27.264Z,76.66
2023-03-06T10:35:30.088Z,76.97
2023-03-06T10:36:27.257Z,76.66
2023-03-06T10:37:27.233Z,76.87
2023-03-06T10:38:27.223Z,76.39
2023-03-06T10:39:27.212Z,76.91
2023-03-06T10:45:27.925Z,76.22
2023-03-06T10:46:27.190Z,76.32
2023-03-06T10:47:27.126Z,75.49
2023-03-06T10:48:27.132Z,75.46
2023-03-06T10:49:27.117Z,74.84
2023-03-06T10:52:27.069Z,73.67
2023-03-06T10:53:27.060Z,73.77
2023-03-06T10:54:27.048Z,74.32
2023-03-06T10:55:27.039Z,73.02
2023-03-06T10:56:27.026Z,72.64
2023-03-06T10:57:27.038Z,73.80
2023-03-06T10:58:27.001Z,74.15
2023-03-06T10:59:27.037Z,73.43
2023-03-06T11:00:26.981Z,72.91
2023-03-06T11:01:26.979Z,72.81
2023-03-06T11:02:26.969Z,72.98
2023-03-06T11:03:26.952Z,72.60
2023-03-06T11:04:27.020Z,72.09
2023-03-06T11:05:26.931Z,72.19
2023-03-06T11:06:26.916Z,72.88
2023-03-06T11:08:26.896Z,70.41
2023-03-06T11:09:26.902Z,70.44
2023-03-06T11:10:26.871Z,71.67
2023-03-06T11:11:37.074Z,71.13
2023-03-06T11:12:26.852Z,70.12
2023-03-06T11:13:26.842Z,70.41
2023-03-06T11:14:27.732Z,70.23
2023-03-06T11:15:26.846Z,71.02
2023-03-06T11:17:26.800Z,70.58
2023-03-06T11:18:26.786Z,69.86
2023-03-06T11:19:26.778Z,69.30
2023-03-06T11:20:26.772Z,70.09
2023-03-06T11:21:26.779Z,70.58
2023-03-06T11:22:26.743Z,70.37
2023-03-06T11:23:26.734Z,69.62
2023-03-06T11:24:26.726Z,69.75
2023-03-06T11:25:26.713Z,70.92
2023-03-06T11:26:26.700Z,68.93
2023-03-06T11:27:26.686Z,69.24
2023-03-06T11:28:26.676Z,68.21
2023-03-06T11:29:26.715Z,68.42
2023-03-06T11:30:26.650Z,68.18
2023-03-06T11:31:26.718Z,68.24
2023-03-06T11:33:26.622Z,67.43
2023-03-06T11:34:26.605Z,67.04
2023-03-06T11:35:26.638Z,63.98
2023-03-06T11:36:26.592Z,61.48
2023-03-06T11:37:26.575Z,60.22
2023-03-06T11:38:26.566Z,61.90
2023-03-06T11:39:26.553Z,62.50
2023-03-06T11:40:26.539Z,61.04
2023-03-06T11:41:26.533Z,59.47
2023-03-06T11:42:26.521Z,58.25
2023-03-06T11:43:26.512Z,57.99
2023-03-06T11:44:26.494Z,59.35
2023-03-06T11:45:26.491Z,59.40
2023-03-06T11:46:26.498Z,59.75
2023-03-06T11:47:26.545Z,61.24
2023-03-06T11:50:26.433Z,59.42
2023-03-06T11:51:26.427Z,58.09
2023-03-06T11:53:26.402Z,57.94
2023-03-06T11:54:26.387Z,59.91
2023-03-06T11:55:26.397Z,56.45
2023-03-06T11:56:26.380Z,57.69
2023-03-06T11:57:26.365Z,56.94
2023-03-06T11:58:26.344Z,57.94
2023-03-06T11:59:26.336Z,56.86
2023-03-06T12:00:26.324Z,59.55
2023-03-06T12:01:26.314Z,58.25
2023-03-06T12:02:26.368Z,58.82
2023-03-06T12:03:26.319Z,59.77
2023-03-06T12:04:26.291Z,60.59
2023-03-06T12:05:26.321Z,60.34
2023-03-06T12:06:26.258Z,60.57
2023-03-06T12:08:26.239Z,61.84
2023-03-06T12:09:26.228Z,62.38
2023-03-06T12:10:26.231Z,64.20
2023-03-06T12:11:26.207Z,63.61
2023-03-06T12:12:26.197Z,64.13
2023-03-06T12:13:26.184Z,63.59
2023-03-06T12:18:26.137Z,63.17
2023-03-06T12:19:26.140Z,63.51
2023-03-06T12:20:26.112Z,63.28
2023-03-06T12:21:26.099Z,63.04
2023-03-06T12:22:26.089Z,62.01
2023-03-06T12:23:26.073Z,60.98
2023-03-06T12:24:26.060Z,60.75
2023-03-06T12:31:26.010Z,58.33
2023-03-06T12:32:26.004Z,58.18
2023-03-06T12:33:25.967Z,58.16
2023-03-06T12:37:25.930Z,59.85
2023-03-06T12:38:25.910Z,61.09
2023-03-06T12:39:25.921Z,61.22
2023-03-06T12:40:25.887Z,61.63
2023-03-06T12:41:25.881Z,61.45
2023-03-06T12:42:25.868Z,62.66
2023-03-06T12:43:25.855Z,61.94
2023-03-06T12:44:25.845Z,61.45
2023-03-06T12:45:25.836Z,61.35
2023-03-06T12:50:26.809Z,61.32
2023-03-06T12:51:25.815Z,61.60
2023-03-06T12:52:30.234Z,60.91
2023-03-06T12:54:25.735Z,60.78
2023-03-06T12:55:26.035Z,59.72
2023-03-06T12:56:25.713Z,58.95
2023-03-06T12:57:25.701Z,57.17
2023-03-06T13:02:25.671Z,58.25
2023-03-06T13:03:25.638Z,59.74
2023-03-06T13:04:25.630Z,57.72
2023-03-06T13:05:25.615Z,58.85
2023-03-06T13:06:25.605Z,59.16
2023-03-06T13:07:25.624Z,58.64
2023-03-06T13:08:25.580Z,58.20
2023-03-06T13:09:25.573Z,57.66
2023-03-06T13:10:25.557Z,57.17
2023-03-06T13:11:25.551Z,58.07
2023-03-06T13:12:25.565Z,58.17
2023-03-06T13:13:25.532Z,57.25
2023-03-06T13:14:25.523Z,57.28
2023-03-06T13:15:25.509Z,56.59
2023-03-06T13:16:25.574Z,56.89
2023-03-06T13:17:25.517Z,57.02
2023-03-06T13:18:25.489Z,58.36
2023-03-06T13:19:25.494Z,58.87
2023-03-06T13:20:25.452Z,58.85
2023-03-06T13:22:25.432Z,58.23
2023-03-06T13:23:25.444Z,59.59
2023-03-06T13:24:25.419Z,59.21
2023-03-06T13:25:25.419Z,59.62
2023-03-06T13:26:25.401Z,59.13
2023-03-06T13:28:25.365Z,59.64
2023-03-06T13:29:25.358Z,59.21
2023-03-06T13:30:25.340Z,60.68
2023-03-06T13:31:27.713Z,59.00
2023-03-06T13:32:25.389Z,59.21
2023-03-06T13:33:25.307Z,58.00
2023-03-06T13:34:25.310Z,58.49
2023-03-06T13:35:25.302Z,57.82
2023-03-06T13:36:25.271Z,58.52
2023-03-06T13:37:25.285Z,58.39
2023-03-06T13:38:25.252Z,57.56
2023-03-06T13:39:25.266Z,57.54
2023-03-06T13:40:25.230Z,57.40
2023-03-06T13:41:25.225Z,56.28
2023-03-06T13:42:25.205Z,55.92
2023-03-06T13:43:25.205Z,54.91
2023-03-06T13:44:25.200Z,55.35
2023-03-06T13:45:25.176Z,56.04
2023-03-06T13:47:25.152Z,54.79
2023-03-06T13:48:43.208Z,54.35
2023-03-06T13:49:25.130Z,54.56
2023-03-06T13:53:25.087Z,53.43
2023-03-06T13:54:25.117Z,54.15
2023-03-06T13:55:25.126Z,54.48
2023-03-06T13:56:25.054Z,54.79
2023-03-06T13:58:25.033Z,54.97
2023-03-06T13:59:25.024Z,54.66
2023-03-06T14:00:25.009Z,54.89
2023-03-06T14:01:25.050Z,54.46
2023-03-06T14:02:25.045Z,54.10
2023-03-06T14:03:24.980Z,52.51
2023-03-06T14:04:24.965Z,53.05
2023-03-06T14:05:24.954Z,52.85
2023-03-06T14:06:24.953Z,52.05
2023-03-06T14:07:24.946Z,51.01
2023-03-06T14:08:24.925Z,50.09
2023-03-06T14:09:24.908Z,50.60
2023-03-06T14:10:24.922Z,49.45
2023-03-06T14:11:24.922Z,47.12
2023-03-06T14:12:24.888Z,46.33
2023-03-06T14:13:26.628Z,47.80
2023-03-06T14:14:24.862Z,47.68
2023-03-06T14:15:24.842Z,45.78
2023-03-06T14:16:24.896Z,47.23
2023-03-06T14:17:24.820Z,47.21
2023-03-06T14:18:24.822Z,47.80
2023-03-06T14:19:24.797Z,49.03
2023-03-06T14:20:24.789Z,50.01
2023-03-06T14:21:24.777Z,47.92
2023-03-06T14:22:24.771Z,46.55
2023-03-06T14:23:24.756Z,47.66
2023-03-06T14:24:24.758Z,47.14
2023-03-06T14:25:24.733Z,48.04
2023-03-06T14:26:24.722Z,47.43
2023-03-06T14:27:24.733Z,46.14
2023-03-06T14:30:26.249Z,46.28
2023-03-06T14:31:24.726Z,45.47
2023-03-06T14:32:24.698Z,45.92
2023-03-06T14:33:24.648Z,45.73
2023-03-06T14:37:24.622Z,46.39
2023-03-06T14:39:24.598Z,47.66
2023-03-06T14:40:24.581Z,47.97
2023-03-06T14:42:24.577Z,47.87
2023-03-06T14:43:24.571Z,47.52
2023-03-06T14:44:24.531Z,46.27
2023-03-06T14:47:24.512Z,45.90
2023-03-06T14:48:24.494Z,47.23
2023-03-06T14:49:24.477Z,46.27
2023-03-06T14:51:24.455Z,44.65
2023-03-06T14:54:24.424Z,45.61
2023-03-06T14:56:24.402Z,45.65
2023-03-06T14:57:24.390Z,46.39
2023-03-06T14:58:24.380Z,48.01
2023-03-06T15:00:24.384Z,47.72
2023-03-06T15:01:24.389Z,47.08
2023-03-06T15:02:24.407Z,46.16
2023-03-06T15:03:24.333Z,47.08
2023-03-06T15:04:24.317Z,46.55
2023-03-06T15:05:24.308Z,46.71
2023-03-06T15:06:24.293Z,46.20
2023-03-06T15:07:24.294Z,45.48
2023-03-06T15:08:24.279Z,45.45
2023-03-06T15:10:24.247Z,47.16
2023-03-06T15:11:24.233Z,45.63
2023-03-06T15:15:24.208Z,45.78
2023-03-06T15:16:24.268Z,46.88
2023-03-06T15:17:24.172Z,46.08
2023-03-06T15:18:24.156Z,48.23
2023-03-06T15:19:24.145Z,47.39
2023-03-06T15:20:24.136Z,46.96
2023-03-06T15:21:24.126Z,46.27
2023-03-06T15:22:24.111Z,47.00
2023-03-06T15:23:24.105Z,49.67
2023-03-06T15:24:24.091Z,47.82
2023-03-06T15:25:24.129Z,47.82
2023-03-06T15:26:24.076Z,47.41
2023-03-06T15:27:24.064Z,47.80
2023-03-06T15:28:24.047Z,47.90
2023-03-06T15:29:24.034Z,49.31
2023-03-06T15:30:24.039Z,50.02
2023-03-06T15:31:24.242Z,49.07
2023-03-06T15:32:24.092Z,48.44
2023-03-06T15:33:24.014Z,47.85
2023-03-06T15:34:24.013Z,48.10
2023-03-06T15:35:24.015Z,48.61
2023-03-06T15:36:23.958Z,50.07
2023-03-06T15:37:23.948Z,48.73
2023-03-06T15:38:23.942Z,49.45
2023-03-06T15:39:23.925Z,49.74
2023-03-06T15:41:23.910Z,49.43
2023-03-06T15:42:23.895Z,50.28
2023-03-06T15:43:23.882Z,50.87
2023-03-06T15:46:23.855Z,49.04
2023-03-06T15:47:23.870Z,50.04
2023-03-06T15:48:23.832Z,49.45
2023-03-06T15:49:23.819Z,49.89
2023-03-06T15:50:23.810Z,51.42
2023-03-06T15:51:23.798Z,50.71
2023-03-06T15:52:23.790Z,50.37
2023-03-06T15:53:23.776Z,49.94
2023-03-06T15:54:23.765Z,49.43
2023-03-06T15:55:23.755Z,50.81
2023-03-06T15:56:23.745Z,52.45
2023-03-06T15:57:23.736Z,53.79
2023-03-06T15:58:23.727Z,56.38
2023-03-06T15:59:23.715Z,57.72
2023-03-06T16:00:27.750Z,58.64
2023-03-06T16:02:23.678Z,58.82
2023-03-06T16:03:23.795Z,59.13
2023-03-06T16:04:23.725Z,61.31
2023-03-06T16:05:23.647Z,61.54
2023-03-06T16:06:23.636Z,62.70
2023-03-06T16:07:23.623Z,63.86
2023-03-06T16:08:23.611Z,64.92
2023-03-06T16:09:23.600Z,65.16
2023-03-06T16:10:23.591Z,66.40
2023-03-06T16:11:26.023Z,65.78
2023-03-06T16:12:23.578Z,65.85
2023-03-06T16:13:23.560Z,65.54
2023-03-06T16:14:23.620Z,66.40
2023-03-06T16:16:23.552Z,67.90
2023-03-06T16:18:23.514Z,69.06
2023-03-06T16:19:27.791Z,69.51
2023-03-06T16:20:23.484Z,68.69
2023-03-06T16:21:23.467Z,68.72
2023-03-06T16:22:23.460Z,69.14
2023-03-06T16:23:23.473Z,68.07
2023-03-06T16:24:23.448Z,68.21
2023-03-06T16:26:23.413Z,68.52
2023-03-06T16:27:23.426Z,69.65
2023-03-06T16:28:23.394Z,68.10